createdAt,value
2018-08-03T00:01:22.478Z,60.66
2018-08-03T00:02:32.331Z,60.75
2018-08-03T00:03:48.914Z,60.17
2018-08-03T00:06:49.761Z,60.17
2018-08-03T00:08:04.824Z,60.17
2018-08-03T00:09:03.397Z,60.75
2018-08-03T00:10:06.990Z,60.66
2018-08-03T00:11:15.706Z,61.33
2018-08-03T00:12:13.766Z,60.85
2018-08-03T00:13:33.335Z,62.01
2018-08-03T00:14:29.041Z,61.82
2018-08-03T00:15:27.924Z,62.11
2018-08-03T00:16:36.124Z,62.11
2018-08-03T00:17:48.113Z,61.33
2018-08-03T00:18:54.468Z,61.05
2018-08-03T00:20:18.746Z,60.72
2018-08-03T00:20:55.814Z,61.15
2018-08-03T00:22:01.865Z,60.72
2018-08-03T00:23:02.794Z,61.50
2018-08-03T00:24:21.446Z,61.30
2018-08-03T00:25:29.745Z,61.50
2018-08-03T00:27:50.346Z,61.98
2018-08-03T00:28:46.875Z,63.14
2018-08-03T00:29:44.528Z,62.27
2018-08-03T00:30:52.422Z,61.79
2018-08-03T00:31:57.448Z,62.66
2018-08-03T00:34:08.740Z,63.02
2018-08-03T00:36:35.577Z,63.63
2018-08-03T00:37:36.097Z,63.21
2018-08-03T00:38:38.052Z,63.63
2018-08-03T00:39:36.215Z,63.60
2018-08-03T00:40:40.116Z,63.69
2018-08-03T00:42:57.233Z,63.60
2018-08-03T00:43:59.496Z,63.79
2018-08-03T00:45:12.509Z,63.79
2018-08-03T00:46:05.555Z,63.79
2018-08-03T00:47:09.764Z,63.21
2018-08-03T00:48:26.874Z,63.60
2018-08-03T00:50:21.464Z,63.50
2018-08-03T00:51:30.891Z,63.50
2018-08-03T00:52:44.223Z,63.50
2018-08-03T00:56:00.416Z,63.60
2018-08-03T00:57:16.503Z,63.50
2018-08-03T00:58:08.628Z,63.21
2018-08-03T01:01:30.873Z,64.66
2018-08-03T01:02:37.946Z,63.98
2018-08-03T01:04:47.079Z,64.66
2018-08-03T01:05:54.262Z,64.34
2018-08-03T01:06:48.324Z,64.34
2018-08-03T01:08:00.416Z,64.43
2018-08-03T01:09:05.547Z,64.72
2018-08-03T01:10:14.566Z,65.11
2018-08-03T01:11:14.676Z,65.01
2018-08-03T01:12:30.763Z,65.20
2018-08-03T01:13:39.783Z,65.20
2018-08-03T01:15:38.678Z,64.92
2018-08-03T01:16:59.983Z,65.11
2018-08-03T01:17:58.148Z,64.92
2018-08-03T01:18:56.309Z,65.50
2018-08-03T01:20:08.406Z,65.30
2018-08-03T01:21:23.466Z,66.08
2018-08-03T01:22:13.644Z,66.27
2018-08-03T01:23:13.448Z,66.17
2018-08-03T01:25:32.614Z,66.27
2018-08-03T01:26:55.975Z,66.17
2018-08-03T01:27:50.856Z,66.46
2018-08-03T01:29:00.085Z,67.14
2018-08-03T01:29:49.031Z,66.82
2018-08-03T01:31:09.009Z,67.01
2018-08-03T01:32:12.502Z,67.59
2018-08-03T01:32:53.357Z,67.20
2018-08-03T01:34:15.277Z,67.11
2018-08-03T01:35:04.534Z,67.11
2018-08-03T01:37:22.168Z,66.91
2018-08-03T01:39:09.590Z,66.53
2018-08-03T01:41:51.697Z,66.63
2018-08-03T01:44:42.916Z,66.24
2018-08-03T01:45:21.113Z,66.33
2018-08-03T01:46:43.242Z,66.33
2018-08-03T01:48:10.798Z,66.63
2018-08-03T01:48:51.453Z,66.82
2018-08-03T01:50:01.605Z,67.01
2018-08-03T01:51:34.280Z,67.01
2018-08-03T01:51:58.747Z,66.72
2018-08-03T01:53:21.806Z,66.63
2018-08-03T01:54:18.019Z,66.97
2018-08-03T01:55:26.119Z,66.82
2018-08-03T01:57:00.125Z,66.88
2018-08-03T01:57:25.110Z,67.17
2018-08-03T01:58:53.484Z,67.46
2018-08-03T02:00:03.219Z,67.17
2018-08-03T02:01:22.692Z,67.27
2018-08-03T02:02:09.692Z,67.17
2018-08-03T02:03:04.373Z,66.97
2018-08-03T02:04:24.451Z,67.36
2018-08-03T02:05:36.953Z,67.75
2018-08-03T02:06:22.523Z,68.71
2018-08-03T02:08:00.420Z,68.62
2018-08-03T02:09:50.921Z,67.75
2018-08-03T02:10:49.184Z,68.13
2018-08-03T02:12:08.872Z,68.59
2018-08-03T02:13:04.372Z,67.94
2018-08-03T02:13:56.686Z,67.85
2018-08-03T02:15:16.867Z,67.75
2018-08-03T02:16:06.124Z,67.94
2018-08-03T02:17:26.615Z,68.29
2018-08-03T02:18:31.028Z,68.01
2018-08-03T02:19:25.713Z,68.19
2018-08-03T02:21:48.260Z,68.39
2018-08-03T02:22:52.774Z,68.59
2018-08-03T02:23:59.848Z,69.74
2018-08-03T02:25:13.477Z,69.26
2018-08-03T02:26:11.850Z,69.64
2018-08-03T02:27:17.284Z,69.84
2018-08-03T02:28:20.365Z,69.26
2018-08-03T02:29:21.398Z,69.74
2018-08-03T02:30:42.408Z,69.74
2018-08-03T02:31:27.559Z,69.74
2018-08-03T02:33:50.004Z,70.03
2018-08-03T02:34:44.891Z,70.22
2018-08-03T02:37:05.799Z,70.03
2018-08-03T02:39:08.375Z,69.84
2018-08-03T02:40:21.393Z,69.93
2018-08-03T02:41:30.004Z,70.13
2018-08-03T02:42:32.471Z,70.22
2018-08-03T02:43:56.957Z,69.45
2018-08-03T02:45:25.839Z,70.22
2018-08-03T02:46:48.176Z,69.26
2018-08-03T02:47:55.759Z,69.64
2018-08-03T02:49:05.706Z,69.74
2018-08-03T02:50:10.114Z,69.35
2018-08-03T02:51:12.273Z,69.45
2018-08-03T02:52:20.782Z,69.55
2018-08-03T02:53:12.597Z,69.64
2018-08-03T02:54:36.976Z,69.74
2018-08-03T02:55:36.575Z,69.84
2018-08-03T02:56:32.488Z,69.55
2018-08-03T02:57:44.480Z,70.19
2018-08-03T02:58:58.007Z,70.48
2018-08-03T03:00:55.569Z,70.48
2018-08-03T03:02:11.041Z,70.09
2018-08-03T03:03:08.907Z,70.48
2018-08-03T03:04:14.747Z,70.76
2018-08-03T03:05:21.616Z,70.48
2018-08-03T03:06:28.283Z,70.19
2018-08-03T03:10:40.295Z,70.96
2018-08-03T03:12:08.364Z,71.44
2018-08-03T03:14:09.200Z,72.02
2018-08-03T03:15:05.010Z,72.21
2018-08-03T03:16:27.651Z,72.31
2018-08-03T03:17:21.926Z,72.21
2018-08-03T03:18:25.418Z,72.21
2018-08-03T03:19:29.367Z,71.92
2018-08-03T03:20:29.225Z,72.21
2018-08-03T03:21:51.667Z,72.12
2018-08-03T03:22:47.775Z,72.21
2018-08-03T03:23:52.800Z,72.02
2018-08-03T03:25:00.693Z,71.92
2018-08-03T03:26:22.616Z,71.83
2018-08-03T03:27:10.643Z,72.41
2018-08-03T03:28:25.706Z,72.21
2018-08-03T03:30:23.264Z,72.50
2018-08-03T03:31:36.590Z,72.60
2018-08-03T03:32:35.705Z,72.89
2018-08-03T03:33:40.390Z,72.99
2018-08-03T03:34:46.232Z,72.69
2018-08-03T03:35:48.392Z,73.18
2018-08-03T03:36:56.698Z,73.27
2018-08-03T03:39:04.804Z,73.14
2018-08-03T03:41:20.182Z,73.66
2018-08-03T03:42:35.555Z,73.57
2018-08-03T03:43:47.960Z,72.95
2018-08-03T03:44:40.694Z,72.69
2018-08-03T03:45:48.793Z,72.66
2018-08-03T03:46:45.834Z,73.08
2018-08-03T03:47:47.379Z,72.60
2018-08-03T03:48:54.863Z,72.60
2018-08-03T03:50:09.313Z,72.02
2018-08-03T03:51:23.249Z,72.31
2018-08-03T03:52:13.013Z,72.18
2018-08-03T03:53:22.851Z,72.18
2018-08-03T03:54:30.642Z,72.02
2018-08-03T03:55:48.982Z,71.70
2018-08-03T03:56:36.100Z,72.56
2018-08-03T03:57:43.773Z,72.66
2018-08-03T03:58:53.305Z,72.75
2018-08-03T04:01:01.220Z,72.75
2018-08-03T04:03:13.311Z,72.75
2018-08-03T04:04:13.320Z,72.66
2018-08-03T04:05:34.321Z,72.75
2018-08-03T04:06:49.282Z,72.66
2018-08-03T04:07:42.230Z,73.53
2018-08-03T04:08:42.335Z,73.24
2018-08-03T04:09:43.688Z,73.62
2018-08-03T04:10:58.177Z,74.20
2018-08-03T04:12:06.529Z,73.82
2018-08-03T04:13:08.485Z,74.49
2018-08-03T04:14:08.903Z,74.40
2018-08-03T04:15:22.021Z,74.20
2018-08-03T04:16:15.165Z,74.58
2018-08-03T04:17:24.905Z,74.40
2018-08-03T04:18:33.310Z,74.20
2018-08-03T04:19:40.692Z,75.07
2018-08-03T04:20:49.943Z,74.88
2018-08-03T04:21:49.413Z,74.97
2018-08-03T04:22:52.492Z,74.78
2018-08-03T04:23:51.373Z,74.97
2018-08-03T04:25:15.241Z,74.30
2018-08-03T04:27:08.603Z,74.78
2018-08-03T04:28:24.179Z,74.20
2018-08-03T04:30:29.932Z,74.49
2018-08-03T04:32:34.659Z,74.68
2018-08-03T04:33:46.649Z,73.91
2018-08-03T04:35:50.556Z,74.10
2018-08-03T04:37:11.864Z,74.49
2018-08-03T04:38:12.592Z,74.97
2018-08-03T04:39:20.076Z,75.16
2018-08-03T04:40:18.446Z,74.88
2018-08-03T04:41:28.492Z,74.68
2018-08-03T04:42:25.956Z,75.16
2018-08-03T04:43:45.917Z,75.01
2018-08-03T04:44:47.770Z,75.07
2018-08-03T04:46:54.547Z,75.16
2018-08-03T04:47:58.343Z,75.40
2018-08-03T04:49:01.425Z,75.16
2018-08-03T04:50:10.546Z,75.07
2018-08-03T04:51:14.753Z,75.01
2018-08-03T04:53:34.023Z,75.16
2018-08-03T04:54:29.629Z,75.10
2018-08-03T04:55:39.570Z,75.20
2018-08-03T04:57:00.879Z,75.10
2018-08-03T04:57:50.136Z,75.10
2018-08-03T04:59:46.514Z,75.20
2018-08-03T05:01:00.708Z,75.40
2018-08-03T05:02:08.609Z,75.30
2018-08-03T05:03:06.876Z,74.91
2018-08-03T05:04:15.579Z,75.10
2018-08-03T05:05:24.701Z,75.40
2018-08-03T05:08:38.548Z,75.30
2018-08-03T05:10:48.394Z,75.10
2018-08-03T05:11:52.499Z,75.49
2018-08-03T05:13:04.795Z,75.68
2018-08-03T05:14:17.911Z,75.78
2018-08-03T05:15:09.727Z,75.72
2018-08-03T05:16:30.013Z,75.59
2018-08-03T05:17:20.399Z,75.43
2018-08-03T05:18:35.866Z,75.14
2018-08-03T05:21:51.771Z,75.53
2018-08-03T05:23:04.474Z,76.01
2018-08-03T05:24:01.513Z,75.43
2018-08-03T05:24:58.657Z,75.72
2018-08-03T05:26:13.616Z,75.82
2018-08-03T05:27:22.021Z,75.24
2018-08-03T05:28:28.589Z,75.05
2018-08-03T05:29:42.826Z,75.34
2018-08-03T05:31:49.907Z,75.34
2018-08-03T05:32:56.570Z,75.05
2018-08-03T05:34:53.717Z,75.14
2018-08-03T05:35:56.620Z,75.37
2018-08-03T05:37:17.188Z,74.95
2018-08-03T05:38:11.767Z,75.14
2018-08-03T05:39:31.640Z,74.89
2018-08-03T05:40:20.897Z,75.27
2018-08-03T05:41:29.507Z,75.47
2018-08-03T05:42:34.025Z,75.76
2018-08-03T05:44:52.064Z,74.69
2018-08-03T05:45:52.688Z,75.09
2018-08-03T05:47:16.557Z,75.09
2018-08-03T05:47:52.090Z,75.18
2018-08-03T05:49:20.671Z,74.89
2018-08-03T05:50:20.216Z,74.89
2018-08-03T05:51:29.288Z,74.99
2018-08-03T05:52:42.407Z,74.51
2018-08-03T05:53:30.250Z,74.73
2018-08-03T05:54:55.331Z,74.64
2018-08-03T05:56:06.396Z,74.54
2018-08-03T05:57:01.080Z,74.73
2018-08-03T05:57:55.796Z,74.44
2018-08-03T06:00:09.504Z,74.16
2018-08-03T06:02:31.852Z,73.00
2018-08-03T06:03:17.418Z,72.90
2018-08-03T06:04:35.656Z,73.03
2018-08-03T06:05:52.568Z,73.13
2018-08-03T06:07:04.858Z,72.94
2018-08-03T06:07:46.742Z,73.13
2018-08-03T06:09:06.821Z,72.94
2018-08-03T06:11:27.117Z,72.64
2018-08-03T06:12:40.231Z,72.06
2018-08-03T06:13:59.285Z,72.06
2018-08-03T06:14:54.195Z,71.88
2018-08-03T06:16:09.444Z,71.68
2018-08-03T06:18:32.503Z,72.20
2018-08-03T06:19:35.585Z,72.10
2018-08-03T06:20:19.616Z,71.62
2018-08-03T06:21:13.994Z,70.94
2018-08-03T06:23:11.248Z,70.56
2018-08-03T06:25:30.928Z,70.26
2018-08-03T06:26:43.943Z,70.07
2018-08-03T06:29:14.170Z,70.26
2018-08-03T06:30:18.176Z,70.46
2018-08-03T06:32:22.393Z,70.98
2018-08-03T06:33:18.612Z,70.30
2018-08-03T06:34:18.620Z,70.10
2018-08-03T06:35:50.781Z,70.30
2018-08-03T06:36:25.516Z,70.88
2018-08-03T06:37:34.002Z,70.10
2018-08-03T06:38:42.922Z,69.92
2018-08-03T06:39:43.629Z,70.40
2018-08-03T06:41:56.019Z,70.43
2018-08-03T06:43:10.603Z,69.75
2018-08-03T06:43:55.766Z,69.85
2018-08-03T06:47:21.803Z,69.85
2018-08-03T06:48:31.903Z,69.85
2018-08-03T06:49:39.845Z,69.37
2018-08-03T06:50:40.776Z,69.66
2018-08-03T06:51:36.791Z,68.98
2018-08-03T06:52:50.008Z,69.17
2018-08-03T06:53:47.902Z,69.01
2018-08-03T06:55:15.319Z,68.91
2018-08-03T06:56:03.038Z,69.40
2018-08-03T06:57:12.471Z,69.40
2018-08-03T06:58:15.553Z,69.01
2018-08-03T07:01:32.885Z,68.53
2018-08-03T07:02:37.712Z,68.43
2018-08-03T07:03:41.092Z,68.08
2018-08-03T07:04:50.930Z,67.56
2018-08-03T07:05:58.109Z,68.76
2018-08-03T07:07:05.286Z,68.56
2018-08-03T07:07:59.468Z,67.60
2018-08-03T07:09:07.353Z,67.79
2018-08-03T07:11:43.824Z,67.21
2018-08-03T07:12:37.485Z,67.40
2018-08-03T07:13:49.678Z,66.75
2018-08-03T07:14:52.985Z,67.34
2018-08-03T07:15:48.465Z,67.05
2018-08-03T07:18:23.099Z,67.14
2018-08-03T07:18:57.814Z,66.75
2018-08-03T07:20:07.716Z,66.17
2018-08-03T07:21:15.649Z,66.95
2018-08-03T07:22:34.295Z,66.66
2018-08-03T07:23:34.815Z,66.27
2018-08-03T07:24:34.722Z,65.63
2018-08-03T07:25:38.314Z,66.30
2018-08-03T07:26:51.740Z,65.72
2018-08-03T07:30:00.161Z,66.11
2018-08-03T07:30:56.893Z,65.47
2018-08-03T07:32:23.322Z,66.05
2018-08-03T07:33:10.429Z,65.34
2018-08-03T07:34:16.169Z,65.17
2018-08-03T07:35:29.761Z,65.37
2018-08-03T07:36:30.420Z,65.27
2018-08-03T07:37:25.821Z,65.37
2018-08-03T07:38:33.104Z,65.08
2018-08-03T07:39:39.258Z,65.17
2018-08-03T07:40:46.024Z,65.11
2018-08-03T07:42:50.281Z,63.95
2018-08-03T07:45:14.215Z,64.53
2018-08-03T07:46:18.836Z,64.43
2018-08-03T07:48:35.848Z,63.65
2018-08-03T07:49:40.057Z,63.78
2018-08-03T07:50:44.166Z,63.68
2018-08-03T07:52:52.475Z,63.78
2018-08-03T07:54:10.405Z,63.78
2018-08-03T07:56:12.570Z,63.01
2018-08-03T07:57:25.481Z,63.49
2018-08-03T07:58:11.970Z,62.81
2018-08-03T08:00:26.733Z,61.97
2018-08-03T08:01:33.400Z,62.26
2018-08-03T08:02:32.281Z,62.16
2018-08-03T08:03:40.276Z,61.97
2018-08-03T08:04:48.382Z,62.19
2018-08-03T08:05:57.399Z,61.90
2018-08-03T08:06:57.404Z,61.41
2018-08-03T08:08:25.580Z,61.61
2018-08-03T08:10:29.172Z,61.80
2018-08-03T08:11:28.361Z,62.00
2018-08-03T08:12:27.139Z,61.12
2018-08-03T08:13:43.943Z,61.90
2018-08-03T08:14:39.548Z,61.44
2018-08-03T08:15:41.308Z,60.86
2018-08-03T08:16:44.376Z,61.05
2018-08-03T08:17:55.545Z,60.96
2018-08-03T08:18:57.195Z,60.67
2018-08-03T08:20:11.033Z,60.96
2018-08-03T08:21:15.650Z,60.28
2018-08-03T08:22:14.419Z,60.18
2018-08-03T08:23:41.669Z,60.31
2018-08-03T08:24:23.653Z,59.41
2018-08-03T08:25:34.723Z,59.43
2018-08-03T08:26:37.803Z,59.23
2018-08-03T08:27:50.407Z,59.63
2018-08-03T08:28:53.794Z,59.43
2018-08-03T08:32:13.177Z,58.95
2018-08-03T08:35:26.209Z,58.65
2018-08-03T08:36:31.657Z,58.78
2018-08-03T08:37:32.368Z,58.49
2018-08-03T08:38:43.398Z,57.90
2018-08-03T08:39:45.086Z,57.90
2018-08-03T08:40:51.134Z,57.71
2018-08-03T08:42:02.589Z,58.20
2018-08-03T08:43:02.936Z,58.03
2018-08-03T08:44:08.880Z,58.22
2018-08-03T08:45:16.682Z,57.93
2018-08-03T08:46:27.546Z,57.84
2018-08-03T08:47:32.973Z,57.93
2018-08-03T08:50:43.237Z,57.93
2018-08-03T08:51:50.619Z,57.84
2018-08-03T08:53:54.833Z,56.37
2018-08-03T08:55:08.154Z,56.79
2018-08-03T08:56:12.770Z,56.70
2018-08-03T08:57:15.028Z,56.89
2018-08-03T08:58:26.718Z,57.57
2018-08-03T08:59:32.811Z,58.06
2018-08-03T09:00:32.893Z,57.57
2018-08-03T09:02:47.430Z,56.23
2018-08-03T09:04:51.143Z,56.04
2018-08-03T09:06:10.395Z,55.55
2018-08-03T09:07:08.663Z,55.36
2018-08-03T09:09:20.048Z,55.46
2018-08-03T09:10:29.680Z,55.26
2018-08-03T09:11:37.068Z,55.55
2018-08-03T09:13:48.956Z,55.38
2018-08-03T09:14:46.203Z,55.36
2018-08-03T09:15:55.014Z,55.58
2018-08-03T09:16:55.738Z,55.09
2018-08-03T09:18:08.958Z,55.48
2018-08-03T09:19:05.077Z,55.09
2018-08-03T09:21:16.767Z,54.70
2018-08-03T09:22:30.395Z,54.60
2018-08-03T09:25:38.619Z,53.75
2018-08-03T09:26:40.879Z,55.02
2018-08-03T09:27:57.166Z,54.34
2018-08-03T09:29:04.042Z,53.36
2018-08-03T09:29:57.388Z,54.53
2018-08-03T09:31:18.185Z,54.53
2018-08-03T09:32:17.785Z,53.66
2018-08-03T09:34:33.371Z,53.75
2018-08-03T09:36:28.326Z,54.46
2018-08-03T09:38:07.391Z,53.97
2018-08-03T09:38:51.121Z,53.68
2018-08-03T09:39:47.045Z,54.07
2018-08-03T09:41:00.762Z,53.58
2018-08-03T09:43:17.480Z,53.49
2018-08-03T09:44:14.817Z,53.52
2018-08-03T09:45:26.709Z,52.44
2018-08-03T09:46:34.295Z,52.64
2018-08-03T09:48:44.658Z,53.42
2018-08-03T09:49:57.465Z,52.73
2018-08-03T09:51:11.606Z,52.25
2018-08-03T09:51:57.588Z,52.08
2018-08-03T09:53:03.745Z,51.68
2018-08-03T09:55:18.760Z,51.68
2018-08-03T09:56:19.130Z,51.88
2018-08-03T09:57:25.385Z,52.27
2018-08-03T09:58:29.488Z,52.37
2018-08-03T09:59:40.761Z,52.27
2018-08-03T10:00:37.699Z,51.68
2018-08-03T10:02:59.323Z,51.81
2018-08-03T10:04:02.613Z,51.03
2018-08-03T10:04:56.091Z,49.75
2018-08-03T10:06:09.285Z,50.83
2018-08-03T10:07:03.971Z,49.38
2018-08-03T10:09:26.924Z,49.48
2018-08-03T10:10:33.897Z,49.19
2018-08-03T10:11:36.158Z,49.77
2018-08-03T10:12:36.474Z,49.60
2018-08-03T10:13:56.040Z,50.10
2018-08-03T10:15:02.500Z,49.80
2018-08-03T10:16:00.874Z,49.41
2018-08-03T10:17:03.444Z,49.51
2018-08-03T10:18:02.017Z,48.43
2018-08-03T10:19:19.845Z,49.51
2018-08-03T10:20:26.725Z,48.75
2018-08-03T10:21:28.385Z,48.53
2018-08-03T10:22:44.251Z,48.24
2018-08-03T10:23:39.029Z,48.75
2018-08-03T10:24:40.163Z,48.26
2018-08-03T10:25:43.762Z,48.16
2018-08-03T10:27:54.629Z,47.77
2018-08-03T10:29:06.728Z,47.67
2018-08-03T10:31:10.729Z,47.77
2018-08-03T10:32:23.540Z,47.99
2018-08-03T10:33:29.999Z,47.69
2018-08-03T10:35:38.512Z,44.95
2018-08-03T10:36:37.908Z,45.83
2018-08-03T10:37:47.235Z,46.34
2018-08-03T10:38:53.597Z,45.86
2018-08-03T10:40:00.465Z,46.44
2018-08-03T10:41:00.271Z,46.05
2018-08-03T10:42:06.421Z,45.37
2018-08-03T10:43:15.249Z,45.00
2018-08-03T10:44:14.632Z,44.12
2018-08-03T10:46:28.265Z,43.13
2018-08-03T10:47:31.552Z,42.65
2018-08-03T10:48:34.661Z,42.74
2018-08-03T10:49:44.679Z,41.86
2018-08-03T10:50:47.245Z,42.65
2018-08-03T10:52:02.517Z,42.05
2018-08-03T10:53:03.966Z,41.39
2018-08-03T10:55:19.147Z,39.22
2018-08-03T10:56:25.593Z,40.48
2018-08-03T10:57:21.818Z,40.41
2018-08-03T10:58:30.016Z,39.92
2018-08-03T10:59:37.904Z,40.31
2018-08-03T11:00:44.569Z,41.00
2018-08-03T11:01:50.724Z,42.08
2018-08-03T11:02:52.577Z,41.80
2018-08-03T11:04:05.999Z,41.80
2018-08-03T11:05:10.615Z,40.92
2018-08-03T11:06:17.280Z,40.92
2018-08-03T11:07:25.893Z,41.90
2018-08-03T11:08:27.345Z,41.11
2018-08-03T11:09:21.408Z,41.21
2018-08-03T11:11:34.300Z,41.53
2018-08-03T11:12:42.935Z,41.92
2018-08-03T11:13:46.814Z,41.14
2018-08-03T11:14:56.876Z,40.35
2018-08-03T11:16:03.642Z,40.55
2018-08-03T11:17:03.239Z,40.25
2018-08-03T11:18:13.286Z,40.16
2018-08-03T11:19:27.118Z,39.95
2018-08-03T11:21:28.156Z,40.25
2018-08-03T11:22:42.808Z,40.08
2018-08-03T11:23:42.307Z,39.88
2018-08-03T11:24:34.226Z,39.88
2018-08-03T11:25:46.522Z,39.39
2018-08-03T11:26:53.190Z,38.21
2018-08-03T11:27:50.740Z,38.70
2018-08-03T11:28:58.735Z,39.00
2018-08-03T11:30:03.862Z,39.48
2018-08-03T11:31:15.237Z,39.00
2018-08-03T11:32:28.868Z,38.70
2018-08-03T11:33:26.621Z,37.93
2018-08-03T11:34:33.901Z,38.11
2018-08-03T11:35:35.856Z,38.50
2018-08-03T11:37:43.042Z,37.44
2018-08-03T11:39:04.142Z,37.74
2018-08-03T11:39:50.026Z,38.42
2018-08-03T11:41:05.797Z,37.63
2018-08-03T11:42:13.997Z,37.74
2018-08-03T11:43:13.598Z,37.93
2018-08-03T11:44:24.358Z,38.11
2018-08-03T11:45:20.781Z,38.21
2018-08-03T11:46:48.846Z,39.88
2018-08-03T11:47:42.099Z,39.58
2018-08-03T11:48:47.943Z,40.76
2018-08-03T11:49:56.247Z,41.47
2018-08-03T11:50:49.497Z,40.19
2018-08-03T11:51:59.746Z,39.80
2018-08-03T11:53:17.675Z,40.61
2018-08-03T11:54:10.827Z,39.82
2018-08-03T11:56:13.605Z,39.92
2018-08-03T11:57:29.691Z,40.01
2018-08-03T11:58:52.536Z,39.82
2018-08-03T11:59:38.719Z,38.54
2018-08-03T12:00:44.122Z,38.05
2018-08-03T12:01:49.135Z,38.05
2018-08-03T12:03:02.301Z,37.36
2018-08-03T12:04:11.527Z,36.97
2018-08-03T12:05:15.016Z,36.97
2018-08-03T12:06:05.196Z,37.26
2018-08-03T12:08:39.927Z,37.26
2018-08-03T12:09:18.735Z,36.88
2018-08-03T12:10:45.782Z,37.28
2018-08-03T12:12:17.125Z,36.88
2018-08-03T12:12:51.124Z,36.40
2018-08-03T12:13:42.537Z,36.59
2018-08-03T12:15:19.505Z,36.69
2018-08-03T12:16:03.848Z,36.10
2018-08-03T12:16:56.890Z,36.30
2018-08-03T12:18:51.894Z,37.40
2018-08-03T12:19:43.601Z,37.89
2018-08-03T12:20:23.136Z,37.10
2018-08-03T12:21:30.620Z,36.02
2018-08-03T12:23:57.068Z,36.71
2018-08-03T12:24:45.387Z,36.02
2018-08-03T12:26:10.077Z,35.72
2018-08-03T12:27:09.572Z,36.33
2018-08-03T12:28:14.918Z,36.33
2018-08-03T12:29:16.141Z,35.94
2018-08-03T12:30:29.873Z,36.04
2018-08-03T12:31:43.091Z,34.66
2018-08-03T12:33:35.735Z,35.64
2018-08-03T12:34:55.927Z,35.86
2018-08-03T12:35:49.885Z,35.15
2018-08-03T12:36:43.140Z,34.66
2018-08-03T12:38:00.670Z,34.75
2018-08-03T12:39:12.345Z,34.86
2018-08-03T12:40:13.681Z,34.36
2018-08-03T12:41:02.936Z,34.86
2018-08-03T12:42:31.010Z,34.17
2018-08-03T12:43:09.304Z,34.77
2018-08-03T12:45:34.146Z,34.77
2018-08-03T12:46:41.997Z,35.17
2018-08-03T12:47:54.397Z,34.38
2018-08-03T12:48:51.845Z,34.27
2018-08-03T12:50:11.523Z,33.87
2018-08-03T12:51:15.621Z,33.48
2018-08-03T12:53:12.977Z,34.06
2018-08-03T12:54:22.306Z,33.87
2018-08-03T12:55:21.392Z,33.58
2018-08-03T12:58:49.788Z,33.77
2018-08-03T12:59:41.174Z,33.58
2018-08-03T13:00:48.579Z,33.38
2018-08-03T13:02:03.849Z,33.48
2018-08-03T13:03:08.462Z,33.48
2018-08-03T13:04:09.019Z,33.58
2018-08-03T13:05:12.272Z,33.48
2018-08-03T13:06:25.263Z,33.86
2018-08-03T13:07:20.868Z,33.86
2018-08-03T13:08:27.133Z,33.65
2018-08-03T13:09:45.592Z,33.75
2018-08-03T13:10:42.321Z,34.34
2018-08-03T13:11:53.494Z,33.75
2018-08-03T13:12:57.805Z,34.34
2018-08-03T13:14:07.747Z,34.64
2018-08-03T13:15:04.071Z,34.74
2018-08-03T13:17:12.487Z,34.95
2018-08-03T13:21:36.770Z,34.46
2018-08-03T13:22:48.999Z,34.17
2018-08-03T13:24:00.368Z,33.97
2018-08-03T13:26:19.843Z,33.86
2018-08-03T13:26:56.915Z,34.36
2018-08-03T13:29:15.259Z,34.36
2018-08-03T13:30:23.666Z,33.86
2018-08-03T13:32:52.256Z,33.86
2018-08-03T13:33:41.927Z,34.15
2018-08-03T13:34:42.235Z,33.08
2018-08-03T13:36:07.740Z,33.28
2018-08-03T13:36:56.794Z,33.58
2018-08-03T13:38:29.283Z,33.97
2018-08-03T13:39:00.442Z,33.67
2018-08-03T13:41:22.941Z,34.06
2018-08-03T13:42:12.822Z,32.98
2018-08-03T13:43:33.210Z,32.98
2018-08-03T13:45:06.898Z,33.46
2018-08-03T13:46:46.644Z,33.28
2018-08-03T13:47:53.615Z,33.17
2018-08-03T13:49:07.140Z,32.29
2018-08-03T13:49:58.751Z,33.28
2018-08-03T13:52:24.063Z,33.28
2018-08-03T13:53:46.394Z,33.28
2018-08-03T13:54:24.697Z,33.18
2018-08-03T13:55:31.767Z,33.38
2018-08-03T13:57:01.779Z,33.28
2018-08-03T13:58:53.605Z,31.98
2018-08-03T13:59:59.350Z,31.39
2018-08-03T14:00:56.906Z,32.67
2018-08-03T14:02:29.130Z,32.48
2018-08-03T14:03:04.804Z,32.38
2018-08-03T14:04:20.944Z,32.48
2018-08-03T14:05:35.337Z,32.28
2018-08-03T14:06:24.755Z,32.48
2018-08-03T14:09:26.459Z,32.87
2018-08-03T14:10:49.210Z,32.86
2018-08-03T14:11:59.347Z,32.76
2018-08-03T14:13:21.890Z,33.25
2018-08-03T14:14:35.108Z,32.46
2018-08-03T14:15:17.193Z,32.86
2018-08-03T14:16:14.437Z,32.95
2018-08-03T14:17:35.745Z,32.56
2018-08-03T14:18:41.309Z,32.46
2018-08-03T14:19:42.311Z,32.86
2018-08-03T14:20:34.134Z,33.15
2018-08-03T14:22:01.364Z,32.46
2018-08-03T14:23:17.475Z,32.46
2018-08-03T14:23:42.048Z,32.65
2018-08-03T14:25:23.835Z,32.65
2018-08-03T14:26:06.027Z,32.65
2018-08-03T14:27:05.830Z,32.76
2018-08-03T14:31:51.976Z,33.15
2018-08-03T14:32:35.678Z,33.03
2018-08-03T14:34:03.819Z,33.15
2018-08-03T14:34:44.593Z,32.54
2018-08-03T14:37:30.912Z,33.13
2018-08-03T14:38:57.339Z,32.84
2018-08-03T14:40:53.043Z,33.43
2018-08-03T14:41:13.953Z,33.43
2018-08-03T14:42:44.764Z,33.13
2018-08-03T14:43:36.477Z,33.23
2018-08-03T14:44:57.788Z,32.45
2018-08-03T14:45:48.328Z,33.62
2018-08-03T14:46:46.832Z,34.41
2018-08-03T14:48:23.927Z,34.41
2018-08-03T14:49:13.854Z,33.82
2018-08-03T14:50:15.540Z,33.43
2018-08-03T14:51:23.345Z,33.72
2018-08-03T14:52:37.995Z,33.43
2018-08-03T14:56:03.336Z,32.93
2018-08-03T14:56:41.882Z,32.64
2018-08-03T14:59:02.343Z,32.34
2018-08-03T15:00:55.336Z,32.34
2018-08-03T15:01:33.342Z,32.64
2018-08-03T15:04:22.384Z,32.45
2018-08-03T15:05:42.341Z,33.23
2018-08-03T15:06:45.075Z,33.03
2018-08-03T15:07:37.355Z,32.54
2018-08-03T15:08:47.447Z,32.74
2018-08-03T15:10:06.613Z,31.76
2018-08-03T15:10:48.351Z,32.14
2018-08-03T15:12:58.853Z,33.02
2018-08-03T15:14:43.346Z,32.53
2018-08-03T15:15:34.189Z,33.33
2018-08-03T15:17:42.402Z,32.14
2018-08-03T15:18:31.452Z,32.43
2018-08-03T15:19:51.853Z,32.53
2018-08-03T15:21:01.680Z,32.64
2018-08-03T15:22:01.894Z,32.53
2018-08-03T15:24:09.354Z,33.13
2018-08-03T15:25:10.358Z,33.43
2018-08-03T15:26:15.354Z,32.24
2018-08-03T15:27:16.355Z,32.23
2018-08-03T15:28:22.525Z,32.33
2018-08-03T15:29:24.858Z,32.43
2018-08-03T15:30:52.648Z,32.14
2018-08-03T15:31:26.850Z,32.72
2018-08-03T15:33:01.061Z,32.82
2018-08-03T15:34:03.861Z,33.22
2018-08-03T15:35:19.918Z,33.41
2018-08-03T15:35:55.864Z,33.80
2018-08-03T15:37:15.363Z,33.12
2018-08-03T15:38:17.865Z,33.41
2018-08-03T15:39:09.366Z,32.72
2018-08-03T15:41:23.873Z,33.12
2018-08-03T15:42:43.367Z,33.12
2018-08-03T15:43:54.368Z,33.12
2018-08-03T15:44:38.368Z,32.92
2018-08-03T15:45:50.225Z,33.91
2018-08-03T15:46:55.344Z,33.91
2018-08-03T15:48:47.167Z,33.91
2018-08-03T15:49:17.370Z,33.79
2018-08-03T15:51:01.872Z,32.90
2018-08-03T15:51:35.872Z,32.81
2018-08-03T15:52:53.962Z,33.91
2018-08-03T15:53:36.355Z,34.00
2018-08-03T15:55:07.084Z,33.31
2018-08-03T15:55:58.331Z,33.22
2018-08-03T15:56:59.830Z,32.53
2018-08-03T15:58:25.441Z,31.94
2018-08-03T15:59:38.381Z,32.31
2018-08-03T16:02:02.879Z,32.21
2018-08-03T16:02:24.883Z,32.12
2018-08-03T16:04:42.289Z,32.02
2018-08-03T16:05:55.381Z,32.33
2018-08-03T16:06:59.881Z,32.71
2018-08-03T16:08:06.883Z,32.41
2018-08-03T16:09:21.884Z,32.21
2018-08-03T16:10:12.883Z,32.61
2018-08-03T16:11:29.390Z,32.12
2018-08-03T16:12:37.893Z,32.21
2018-08-03T16:13:41.387Z,32.12
2018-08-03T16:15:47.204Z,32.71
2018-08-03T16:17:44.889Z,32.81
2018-08-03T16:19:00.392Z,32.71
2018-08-03T16:21:18.893Z,32.31
2018-08-03T16:22:37.394Z,32.71
2018-08-03T16:23:26.173Z,32.71
2018-08-03T16:24:43.904Z,32.41
2018-08-03T16:25:27.692Z,32.41
2018-08-03T16:26:50.980Z,33.29
2018-08-03T16:27:51.414Z,32.81
2018-08-03T16:29:02.371Z,33.20
2018-08-03T16:29:46.898Z,33.00
2018-08-03T16:32:13.900Z,32.81
2018-08-03T16:33:16.907Z,32.90
2018-08-03T16:34:16.538Z,32.31
2018-08-03T16:35:39.896Z,32.31
2018-08-03T16:36:34.402Z,31.43
2018-08-03T16:37:43.402Z,31.23
2018-08-03T16:38:27.904Z,31.05
2018-08-03T16:39:51.405Z,31.05
2018-08-03T16:40:48.648Z,30.87
2018-08-03T16:42:58.411Z,30.68